createdAt,value
2017-09-03T00:01:38.128Z,10.27
2017-09-03T00:04:04.834Z,10.13
2017-09-03T00:06:31.529Z,10.37
2017-09-03T00:08:58.192Z,11.40
2017-09-03T00:11:24.896Z,10.80
2017-09-03T00:13:51.522Z,10.10
2017-09-03T00:16:18.169Z,9.97
2017-09-03T00:18:44.864Z,11.27
2017-09-03T00:21:11.559Z,10.33
2017-09-03T00:23:38.221Z,10.80
2017-09-03T00:26:04.914Z,10.63
2017-09-03T00:28:31.600Z,12.20
2017-09-03T00:30:58.265Z,11.63
2017-09-03T00:33:24.957Z,11.67
2017-09-03T00:35:51.656Z,11.90
2017-09-03T00:38:18.341Z,10.97
2017-09-03T00:40:44.983Z,10.03
2017-09-03T00:43:11.672Z,11.10
2017-09-03T00:45:38.332Z,11.53
2017-09-03T00:48:05.033Z,9.50
2017-09-03T00:50:31.713Z,9.73
2017-09-03T00:52:58.390Z,9.50
2017-09-03T00:55:25.032Z,10.93
2017-09-03T00:57:51.730Z,10.43
2017-09-03T01:00:18.375Z,10.33
2017-09-03T01:02:45.015Z,11.20
2017-09-03T01:05:11.686Z,10.63
2017-09-03T01:07:38.359Z,10.27
2017-09-03T01:10:04.990Z,10.17
2017-09-03T01:12:31.671Z,10.87
2017-09-03T01:14:58.375Z,10.80
2017-09-03T01:17:25.029Z,10.40
2017-09-03T01:19:51.688Z,10.97
2017-09-03T01:22:18.392Z,10.30
2017-09-03T01:24:45.050Z,10.37
2017-09-03T01:27:11.712Z,9.30
2017-09-03T01:29:38.442Z,9.60
2017-09-03T01:32:05.091Z,9.77
2017-09-03T01:34:31.788Z,8.93
2017-09-03T01:36:58.440Z,10.07
2017-09-03T01:39:25.133Z,10.10
2017-09-03T01:41:51.784Z,10.70
2017-09-03T01:44:18.483Z,9.70
2017-09-03T01:46:45.111Z,7.83
2017-09-03T01:49:11.794Z,9.07
2017-09-03T01:51:38.474Z,9.90
2017-09-03T01:54:05.108Z,9.47
2017-09-03T01:56:31.763Z,8.57
2017-09-03T01:58:58.451Z,8.63
2017-09-03T02:01:25.091Z,8.73
2017-09-03T02:03:51.785Z,9.30
2017-09-03T02:06:18.421Z,8.80
2017-09-03T02:08:45.083Z,9.53
2017-09-03T02:11:11.770Z,10.40
2017-09-03T02:13:38.413Z,9.43
2017-09-03T02:16:05.103Z,10.80
2017-09-03T02:18:31.796Z,11.27
2017-09-03T02:20:58.460Z,10.40
2017-09-03T02:23:25.119Z,11.73
2017-09-03T02:25:51.811Z,11.30
2017-09-03T02:28:18.514Z,11.20
2017-09-03T02:30:45.207Z,11.43
2017-09-03T02:33:11.909Z,13.90
2017-09-03T02:35:38.571Z,12.70
2017-09-03T02:38:05.259Z,13.60
2017-09-03T02:40:31.944Z,13.90
2017-09-03T02:42:58.632Z,14.30
2017-09-03T02:45:25.271Z,13.70
2017-09-03T02:47:51.952Z,15.00
2017-09-03T02:50:18.606Z,15.40
2017-09-03T02:52:45.290Z,14.80
2017-09-03T02:55:11.948Z,16.90
2017-09-03T02:57:38.629Z,17.43
2017-09-03T03:00:05.330Z,15.83
2017-09-03T03:02:31.968Z,15.77
2017-09-03T03:04:58.628Z,16.00
2017-09-03T03:07:25.308Z,16.27
2017-09-03T03:09:51.957Z,17.10
2017-09-03T03:12:18.640Z,16.00
2017-09-03T03:14:45.287Z,14.93
2017-09-03T03:17:11.974Z,15.30
2017-09-03T03:19:38.619Z,15.13
2017-09-03T03:22:05.291Z,15.23
2017-09-03T03:24:31.962Z,14.50
2017-09-03T03:26:58.607Z,14.70
2017-09-03T03:29:25.308Z,14.90
2017-09-03T03:31:51.955Z,14.90
2017-09-03T03:34:18.599Z,15.67
2017-09-03T03:36:45.288Z,15.67
2017-09-03T03:39:11.992Z,13.60
2017-09-03T03:41:38.640Z,15.67
2017-09-03T03:44:05.298Z,15.93
2017-09-03T03:46:31.976Z,16.00
2017-09-03T03:48:58.648Z,15.90
2017-09-03T03:51:25.356Z,16.27
2017-09-03T03:53:52.003Z,15.77
2017-09-03T03:56:18.652Z,16.67
2017-09-03T03:58:45.331Z,15.63
2017-09-03T04:01:11.968Z,17.00
2017-09-03T04:03:38.649Z,16.67
2017-09-03T04:06:05.345Z,14.07
2017-09-03T04:08:32.001Z,15.17
2017-09-03T04:10:58.701Z,19.00
2017-09-03T04:13:25.353Z,16.70
2017-09-03T04:15:52.050Z,16.60
2017-09-03T04:18:18.705Z,16.73
2017-09-03T04:20:45.393Z,16.60
2017-09-03T04:23:12.043Z,18.10
2017-09-03T04:25:38.723Z,17.60
2017-09-03T04:28:05.411Z,15.40
2017-09-03T04:30:32.057Z,18.23
2017-09-03T04:32:58.701Z,17.90
2017-09-03T04:35:25.412Z,16.50
2017-09-03T04:37:52.064Z,16.17
2017-09-03T04:40:18.790Z,16.60
2017-09-03T04:42:45.444Z,16.03
2017-09-03T04:45:12.148Z,17.30
2017-09-03T04:47:38.804Z,17.13
2017-09-03T04:50:05.450Z,15.90
2017-09-03T04:52:32.156Z,15.73
2017-09-03T04:54:58.836Z,16.13
2017-09-03T04:57:25.536Z,15.30
2017-09-03T04:59:52.176Z,14.63
2017-09-03T05:02:18.865Z,16.10
2017-09-03T05:04:45.530Z,16.80
2017-09-03T05:07:12.183Z,16.80
2017-09-03T05:09:38.877Z,16.60
2017-09-03T05:12:05.548Z,17.87
2017-09-03T05:14:32.207Z,17.00
2017-09-03T05:16:58.892Z,18.07
2017-09-03T05:19:25.554Z,17.27
2017-09-03T05:21:52.260Z,18.23
2017-09-03T05:24:18.926Z,17.70
2017-09-03T05:26:45.579Z,17.10
2017-09-03T05:29:12.276Z,16.83
2017-09-03T05:31:38.976Z,19.57
2017-09-03T05:34:05.666Z,18.00
2017-09-03T05:36:32.302Z,19.70
2017-09-03T05:38:58.974Z,20.00
2017-09-03T05:41:25.667Z,18.40
2017-09-03T05:43:52.325Z,19.40
2017-09-03T05:46:19.033Z,20.00
2017-09-03T05:48:45.683Z,19.30
2017-09-03T05:51:12.355Z,20.53
2017-09-03T05:53:39.049Z,19.83
2017-09-03T05:56:05.704Z,18.50
2017-09-03T05:58:32.414Z,21.50
2017-09-03T06:00:59.061Z,19.27
2017-09-03T06:03:25.773Z,20.23
2017-09-03T06:05:52.468Z,19.27
2017-09-03T06:08:19.128Z,18.50
2017-09-03T06:10:45.796Z,17.50
2017-09-03T06:13:12.488Z,19.37
2017-09-03T06:15:39.149Z,19.30
2017-09-03T06:18:05.845Z,19.60
2017-09-03T06:20:32.486Z,20.67
2017-09-03T06:22:59.129Z,17.57
2017-09-03T06:25:25.815Z,16.63
2017-09-03T06:27:52.460Z,18.30
2017-09-03T06:30:19.139Z,21.03
2017-09-03T06:32:45.788Z,19.70
2017-09-03T06:35:12.480Z,18.70
2017-09-03T06:37:39.229Z,18.50
2017-09-03T06:40:05.873Z,20.07
2017-09-03T06:42:32.556Z,20.37
2017-09-03T06:44:59.213Z,20.10
2017-09-03T06:47:25.908Z,20.20
2017-09-03T06:49:52.562Z,18.90
2017-09-03T06:52:19.261Z,20.70
2017-09-03T06:54:45.912Z,20.17
2017-09-03T06:57:12.654Z,19.60
2017-09-03T06:59:39.297Z,18.97
2017-09-03T07:02:05.936Z,17.17
2017-09-03T07:04:32.610Z,16.47
2017-09-03T07:06:59.310Z,17.20
2017-09-03T07:09:25.990Z,18.60
2017-09-03T07:11:52.682Z,19.60
2017-09-03T07:14:19.387Z,19.07
2017-09-03T07:16:46.024Z,17.87
2017-09-03T07:19:12.692Z,19.53
2017-09-03T07:21:39.372Z,18.93
2017-09-03T07:24:06.015Z,18.43
2017-09-03T07:26:32.703Z,20.17
2017-09-03T07:28:59.432Z,18.90
2017-09-03T07:31:26.091Z,20.17
2017-09-03T07:33:52.740Z,18.77
2017-09-03T07:36:19.434Z,18.77
2017-09-03T07:38:46.155Z,17.30
2017-09-03T07:41:12.976Z,18.67
2017-09-03T07:43:39.631Z,16.63
2017-09-03T07:46:06.339Z,16.80
2017-09-03T07:48:32.988Z,16.50
2017-09-03T07:50:59.758Z,16.70
2017-09-03T07:53:26.462Z,15.40
2017-09-03T07:55:54.284Z,15.93
2017-09-03T07:58:20.992Z,14.97
2017-09-03T08:00:47.736Z,15.83
2017-09-03T08:03:14.530Z,14.50
2017-09-03T08:05:41.287Z,14.23
2017-09-03T08:08:07.986Z,12.80
2017-09-03T08:10:34.644Z,16.27
2017-09-03T08:13:01.328Z,15.03
2017-09-03T08:15:27.971Z,16.57
2017-09-03T08:17:54.652Z,16.40
2017-09-03T08:20:21.351Z,15.50
2017-09-03T08:22:48.064Z,15.10
2017-09-03T08:25:14.704Z,14.20
2017-09-03T08:27:41.412Z,13.27
2017-09-03T08:30:08.148Z,13.80
2017-09-03T08:32:34.872Z,12.77
2017-09-03T08:35:01.524Z,13.57
2017-09-03T08:37:28.172Z,13.83
2017-09-03T08:39:54.869Z,13.73
2017-09-03T08:42:21.717Z,14.30
2017-09-03T08:44:48.398Z,12.33
2017-09-03T08:47:16.146Z,11.13
2017-09-03T08:49:45.017Z,12.30
2017-09-03T08:52:11.777Z,12.30
2017-09-03T08:54:38.442Z,11.60
2017-09-03T08:57:05.123Z,11.00
2017-09-03T08:59:31.864Z,11.97
2017-09-03T09:01:58.516Z,12.60
2017-09-03T09:04:25.220Z,12.57
2017-09-03T09:06:51.946Z,12.67
2017-09-03T09:09:18.599Z,12.10
2017-09-03T09:11:45.318Z,11.87
2017-09-03T09:14:11.976Z,12.60
2017-09-03T09:16:38.662Z,12.70
2017-09-03T09:19:05.304Z,11.43
2017-09-03T09:21:32.137Z,12.27
2017-09-03T09:23:58.851Z,10.83
2017-09-03T09:26:25.505Z,11.27
2017-09-03T09:28:52.167Z,11.23
2017-09-03T09:31:18.849Z,8.87
2017-09-03T09:33:45.525Z,9.37
2017-09-03T09:36:12.176Z,9.73
2017-09-03T09:38:38.861Z,10.80
2017-09-03T09:41:05.540Z,10.70
2017-09-03T09:43:32.190Z,10.50
2017-09-03T09:45:58.876Z,11.53
2017-09-03T09:48:25.510Z,11.60
2017-09-03T09:50:52.183Z,10.77
2017-09-03T09:53:18.821Z,9.93
2017-09-03T09:55:45.500Z,10.17
2017-09-03T09:58:12.189Z,10.83
2017-09-03T10:00:38.839Z,11.47
2017-09-03T10:03:05.539Z,10.37
2017-09-03T10:05:32.233Z,9.97
2017-09-03T10:07:58.858Z,9.60
2017-09-03T10:10:26.465Z,9.73
2017-09-03T10:12:53.103Z,9.50
2017-09-03T10:15:19.799Z,10.40
2017-09-03T10:17:46.427Z,10.03
2017-09-03T10:20:13.103Z,10.03
2017-09-03T10:22:39.825Z,10.23
2017-09-03T10:25:06.485Z,9.30
2017-09-03T10:27:33.243Z,9.23
2017-09-03T10:29:59.887Z,9.90
2017-09-03T10:32:26.560Z,8.87
2017-09-03T10:34:53.208Z,8.93
2017-09-03T10:37:19.880Z,8.97
2017-09-03T10:39:46.521Z,8.90
2017-09-03T10:42:13.209Z,8.63
2017-09-03T10:44:39.884Z,8.70
2017-09-03T10:47:06.560Z,8.20
2017-09-03T10:49:33.199Z,7.40
2017-09-03T10:51:59.888Z,8.40
2017-09-03T10:54:26.578Z,7.13
2017-09-03T10:56:53.267Z,9.67
2017-09-03T10:59:19.955Z,8.07
2017-09-03T11:01:46.608Z,8.20
2017-09-03T11:04:13.260Z,7.70
2017-09-03T11:06:39.952Z,6.83
2017-09-03T11:09:06.605Z,8.03
2017-09-03T11:11:33.235Z,7.73
2017-09-03T11:13:59.924Z,8.00
2017-09-03T11:16:26.567Z,8.00
2017-09-03T11:18:53.212Z,7.67
2017-09-03T11:21:19.893Z,8.17
2017-09-03T11:23:46.536Z,8.17
2017-09-03T11:26:13.271Z,9.37
2017-09-03T11:28:40.036Z,8.90
2017-09-03T11:31:06.684Z,9.70
2017-09-03T11:33:33.359Z,10.00
2017-09-03T11:36:00.004Z,8.70
2017-09-03T11:38:26.691Z,8.73
2017-09-03T11:40:53.378Z,8.43
2017-09-03T11:43:20.105Z,8.07
2017-09-03T11:45:46.795Z,7.73
2017-09-03T11:48:13.491Z,8.60
2017-09-03T11:50:40.201Z,7.90
2017-09-03T11:53:06.867Z,7.40
2017-09-03T11:55:33.580Z,6.67
2017-09-03T11:58:00.252Z,6.70
2017-09-03T12:00:26.954Z,5.90
2017-09-03T12:02:53.601Z,7.57
2017-09-03T12:05:20.277Z,6.50
2017-09-03T12:07:47.174Z,5.60
2017-09-03T12:10:13.928Z,5.50
2017-09-03T12:12:40.632Z,6.20
2017-09-03T12:15:07.279Z,5.97
2017-09-03T12:17:34.016Z,6.63
2017-09-03T12:20:00.752Z,6.50
2017-09-03T12:22:27.381Z,5.17
2017-09-03T12:24:55.156Z,6.57
2017-09-03T12:27:21.912Z,6.20
2017-09-03T12:29:48.654Z,5.20
2017-09-03T12:32:15.379Z,5.30
2017-09-03T12:34:42.011Z,7.00
2017-09-03T12:37:08.656Z,5.87
2017-09-03T12:39:35.337Z,5.30
2017-09-03T12:42:01.972Z,7.33
2017-09-03T12:44:28.620Z,6.87
2017-09-03T12:46:55.304Z,6.40
2017-09-03T12:49:21.948Z,6.90
2017-09-03T12:51:48.649Z,5.83
2017-09-03T12:54:15.289Z,5.57
2017-09-03T12:56:41.959Z,6.37
2017-09-03T12:59:08.702Z,6.33
2017-09-03T13:01:35.488Z,5.23
2017-09-03T13:04:02.166Z,5.50
2017-09-03T13:06:28.819Z,4.90
2017-09-03T13:08:55.502Z,5.67
2017-09-03T13:11:22.200Z,5.20
2017-09-03T13:13:48.891Z,4.90
2017-09-03T13:16:15.574Z,4.30
2017-09-03T13:18:42.254Z,4.40
2017-09-03T13:21:08.904Z,4.67
2017-09-03T13:23:35.676Z,4.10
2017-09-03T13:26:02.360Z,4.53
2017-09-03T13:28:28.991Z,5.17
2017-09-03T13:30:55.671Z,5.70
2017-09-03T13:33:22.308Z,5.57
2017-09-03T13:35:48.943Z,5.07
2017-09-03T13:38:15.622Z,5.40
2017-09-03T13:40:42.410Z,5.60
2017-09-03T13:43:09.404Z,5.07
2017-09-03T13:45:36.046Z,5.03
2017-09-03T13:48:02.740Z,4.33
2017-09-03T13:50:29.370Z,4.77
2017-09-03T13:52:56.094Z,5.10
2017-09-03T13:55:22.738Z,5.30
2017-09-03T13:57:49.369Z,5.60
2017-09-03T14:00:16.087Z,5.17
2017-09-03T14:02:42.719Z,4.20
2017-09-03T14:05:09.354Z,4.27
2017-09-03T14:07:36.043Z,4.20
2017-09-03T14:10:02.680Z,4.90
2017-09-03T14:12:29.361Z,4.10
2017-09-03T14:14:56.001Z,4.70
2017-09-03T14:17:22.692Z,4.47
2017-09-03T14:19:49.338Z,5.00
2017-09-03T14:22:15.984Z,4.67
2017-09-03T14:24:42.684Z,4.70
2017-09-03T14:27:09.408Z,4.80
2017-09-03T14:29:36.047Z,3.90
2017-09-03T14:32:02.773Z,4.30
2017-09-03T14:34:29.430Z,4.07
2017-09-03T14:36:56.077Z,4.73
2017-09-03T14:39:22.752Z,4.47
2017-09-03T14:41:49.388Z,4.30
2017-09-03T14:44:16.068Z,4.60
2017-09-03T14:46:42.760Z,4.63
2017-09-03T14:49:09.400Z,3.60
2017-09-03T14:51:36.030Z,3.57
2017-09-03T14:54:02.686Z,3.70
2017-09-03T14:56:29.323Z,3.10
2017-09-03T14:58:55.996Z,3.47
2017-09-03T15:01:22.687Z,3.90
2017-09-03T15:03:49.808Z,2.90
2017-09-03T15:06:16.457Z,2.87
2017-09-03T15:08:43.107Z,3.30
2017-09-03T15:11:09.789Z,2.63
2017-09-03T15:13:36.478Z,3.27
2017-09-03T15:16:03.169Z,3.30
2017-09-03T15:18:29.813Z,2.87
2017-09-03T15:20:56.500Z,3.03
2017-09-03T15:23:23.201Z,3.00
2017-09-03T15:25:49.843Z,2.73
2017-09-03T15:28:16.489Z,3.07
2017-09-03T15:30:43.169Z,3.07
2017-09-03T15:33:09.867Z,3.00
2017-09-03T15:35:36.630Z,3.23
2017-09-03T15:38:03.267Z,3.03
2017-09-03T15:40:29.942Z,3.33
2017-09-03T15:42:56.594Z,2.70
2017-09-03T15:45:23.320Z,2.77
2017-09-03T15:47:49.960Z,3.07
2017-09-03T15:50:16.691Z,2.70
2017-09-03T15:52:43.347Z,3.37
2017-09-03T15:55:10.083Z,3.40
2017-09-03T15:57:36.728Z,2.83
2017-09-03T16:00:03.356Z,3.10
2017-09-03T16:02:30.040Z,2.83
2017-09-03T16:04:56.768Z,2.93
2017-09-03T16:07:23.491Z,3.00
2017-09-03T16:09:50.124Z,3.10
2017-09-03T16:12:16.824Z,2.73
2017-09-03T16:14:43.469Z,3.03
2017-09-03T16:17:10.103Z,2.97
2017-09-03T16:19:36.784Z,2.90
2017-09-03T16:22:03.463Z,3.07
2017-09-03T16:24:30.107Z,3.00
2017-09-03T16:26:56.805Z,2.97
2017-09-03T16:29:23.440Z,2.93
2017-09-03T16:31:50.094Z,3.20
2017-09-03T16:34:17.653Z,3.07
2017-09-03T16:36:44.614Z,2.77
2017-09-03T16:39:11.327Z,3.40
2017-09-03T16:41:38.037Z,2.37
2017-09-03T16:44:04.743Z,2.67
2017-09-03T16:46:31.434Z,3.37
2017-09-03T16:48:58.123Z,2.77
2017-09-03T16:51:24.766Z,3.10
2017-09-03T16:53:51.405Z,2.90
2017-09-03T16:56:18.338Z,2.73
2017-09-03T16:58:45.029Z,4.30
2017-09-03T17:01:11.722Z,4.13
2017-09-03T17:03:38.364Z,3.80
2017-09-03T17:06:05.000Z,3.83
2017-09-03T17:08:31.692Z,3.77
2017-09-03T17:10:58.385Z,4.27
2017-09-03T17:13:25.062Z,4.90
2017-09-03T17:15:51.704Z,6.50
2017-09-03T17:18:18.396Z,4.67
2017-09-03T17:20:45.076Z,4.60
2017-09-03T17:23:11.767Z,4.63
2017-09-03T17:25:38.434Z,3.43
2017-09-03T17:28:05.302Z,3.87
2017-09-03T17:30:32.652Z,4.30
2017-09-03T17:32:59.297Z,4.00
2017-09-03T17:35:26.447Z,3.80
2017-09-03T17:37:56.683Z,3.70
2017-09-03T17:40:33.272Z,5.00
2017-09-03T17:43:14.860Z,6.50
2017-09-03T17:45:42.152Z,6.20
2017-09-03T17:48:08.792Z,6.30
2017-09-03T17:50:35.576Z,4.70
2017-09-03T17:53:02.437Z,5.93
2017-09-03T17:55:29.841Z,6.10
2017-09-03T17:57:56.513Z,7.10
2017-09-03T18:00:23.219Z,6.10
2017-09-03T18:02:50.435Z,5.13
2017-09-03T18:05:17.132Z,5.67
2017-09-03T18:07:43.836Z,4.90
2017-09-03T18:10:10.565Z,5.73
2017-09-03T18:12:37.225Z,5.00
2017-09-03T18:15:03.927Z,4.97
2017-09-03T18:17:30.553Z,5.30
2017-09-03T18:19:57.231Z,4.93
2017-09-03T18:22:23.909Z,4.93
2017-09-03T18:24:50.666Z,5.30
2017-09-03T18:27:17.371Z,5.70
2017-09-03T18:29:54.059Z,6.30
2017-09-03T18:32:20.714Z,5.20
2017-09-03T18:34:47.387Z,5.27
2017-09-03T18:37:15.715Z,5.20
2017-09-03T18:39:48.436Z,4.90
2017-09-03T18:42:20.897Z,5.20
2017-09-03T18:44:48.630Z,6.10
2017-09-03T18:49:50.341Z,5.10
2017-09-03T18:52:32.913Z,5.20
2017-09-03T18:55:00.116Z,4.67
2017-09-03T18:57:29.144Z,4.37
2017-09-03T18:59:57.716Z,5.13
2017-09-03T19:02:40.302Z,5.73
2017-09-03T19:05:16.928Z,4.97
2017-09-03T19:07:43.705Z,5.57
2017-09-03T19:10:10.421Z,4.90
2017-09-03T19:12:37.858Z,6.37
2017-09-03T19:15:06.268Z,5.90
2017-09-03T19:17:33.229Z,5.50
2017-09-03T19:20:00.960Z,6.10
2017-09-03T19:22:27.723Z,5.67
2017-09-03T19:24:55.661Z,6.60
2017-09-03T19:27:22.499Z,5.83
2017-09-03T19:29:49.146Z,6.37
2017-09-03T19:32:19.078Z,6.77
2017-09-03T19:34:48.275Z,6.50
2017-09-03T19:37:14.985Z,6.10
2017-09-03T19:39:42.366Z,6.17
2017-09-03T19:42:10.140Z,6.97
2017-09-03T19:44:37.250Z,6.90
2017-09-03T19:47:03.991Z,6.77
2017-09-03T19:49:31.642Z,6.60
2017-09-03T19:51:58.958Z,6.93
2017-09-03T19:54:26.297Z,6.10
2017-09-03T19:56:54.170Z,7.20
2017-09-03T19:59:21.204Z,6.90
2017-09-03T20:01:48.020Z,8.13
2017-09-03T20:04:14.770Z,7.40
2017-09-03T20:06:41.534Z,7.20
2017-09-03T20:09:08.252Z,7.27
2017-09-03T20:11:34.981Z,6.37
2017-09-03T20:14:01.673Z,7.03
2017-09-03T20:16:28.437Z,6.90
2017-09-03T20:18:55.123Z,7.20
2017-09-03T20:21:21.762Z,6.80
2017-09-03T20:23:48.525Z,7.20
2017-09-03T20:26:15.208Z,6.97
2017-09-03T20:28:42.009Z,6.70
2017-09-03T20:31:08.865Z,6.60
2017-09-03T20:33:35.666Z,7.10
2017-09-03T20:36:02.428Z,7.03
2017-09-03T20:38:29.357Z,7.50
2017-09-03T20:40:56.065Z,6.50
2017-09-03T20:43:22.762Z,6.17
2017-09-03T20:45:49.414Z,6.13
2017-09-03T20:48:16.106Z,7.00
2017-09-03T20:50:42.747Z,6.40
2017-09-03T20:53:09.464Z,7.30
2017-09-03T20:55:36.152Z,5.70
2017-09-03T20:58:02.833Z,6.97
2017-09-03T21:00:29.497Z,6.33
2017-09-03T21:02:56.275Z,6.40
2017-09-03T21:05:23.079Z,6.13
2017-09-03T21:07:49.825Z,6.73
2017-09-03T21:10:16.605Z,6.40
2017-09-03T21:12:43.332Z,5.80
2017-09-03T21:15:10.027Z,5.60
2017-09-03T21:17:36.764Z,6.10
2017-09-03T21:20:03.746Z,5.10
2017-09-03T21:22:30.587Z,5.67
2017-09-03T21:24:57.253Z,4.80
2017-09-03T21:27:23.961Z,5.70
2017-09-03T21:29:50.883Z,5.90
2017-09-03T21:32:17.528Z,6.37
2017-09-03T21:34:44.229Z,5.70
2017-09-03T21:37:10.917Z,5.50
2017-09-03T21:39:37.608Z,5.03
2017-09-03T21:42:04.324Z,5.43
2017-09-03T21:44:30.978Z,6.47
2017-09-03T21:46:57.648Z,5.13
2017-09-03T21:49:24.347Z,6.17
2017-09-03T21:51:51.000Z,5.47
2017-09-03T21:54:17.663Z,5.07
2017-09-03T21:56:44.408Z,5.20
2017-09-03T21:59:11.440Z,5.13
2017-09-03T22:01:38.203Z,4.80
2017-09-03T22:04:04.841Z,4.83
2017-09-03T22:06:31.562Z,4.97
2017-09-03T22:08:58.207Z,4.43
2017-09-03T22:11:24.836Z,5.43
2017-09-03T22:13:51.512Z,4.50
2017-09-03T22:16:18.165Z,4.83
2017-09-03T22:18:44.852Z,5.10
2017-09-03T22:21:11.546Z,4.80
2017-09-03T22:23:38.246Z,4.97
2017-09-03T22:26:04.890Z,5.60
2017-09-03T22:28:31.620Z,5.50
2017-09-03T22:30:58.259Z,4.80
2017-09-03T22:33:24.965Z,5.10
2017-09-03T22:35:51.618Z,5.23
2017-09-03T22:38:18.296Z,5.07
2017-09-03T22:40:44.941Z,4.70
2017-09-03T22:43:11.633Z,4.97
2017-09-03T22:45:38.298Z,4.53
2017-09-03T22:48:04.977Z,5.30
2017-09-03T22:50:31.616Z,4.77
2017-09-03T22:52:58.304Z,5.30
2017-09-03T22:55:24.997Z,4.30
2017-09-03T22:57:51.628Z,5.17
2017-09-03T23:00:18.303Z,4.60
2017-09-03T23:02:44.952Z,5.20
2017-09-03T23:05:11.640Z,5.40
2017-09-03T23:07:38.320Z,5.07
2017-09-03T23:10:04.996Z,4.77
2017-09-03T23:12:31.676Z,4.60
2017-09-03T23:14:58.349Z,5.00
2017-09-03T23:17:25.790Z,5.27
2017-09-03T23:19:52.460Z,5.13
2017-09-03T23:22:19.096Z,5.03
2017-09-03T23:24:45.784Z,4.80
2017-09-03T23:27:12.452Z,5.30
2017-09-03T23:29:39.139Z,4.70
2017-09-03T23:32:05.863Z,4.70
2017-09-03T23:34:32.560Z,5.00
2017-09-03T23:36:59.203Z,5.10
2017-09-03T23:39:25.875Z,4.60
2017-09-03T23:41:52.562Z,4.17
2017-09-03T23:44:19.213Z,5.03
2017-09-03T23:46:45.896Z,4.80
2017-09-03T23:49:12.584Z,4.90
2017-09-03T23:51:39.224Z,4.67
2017-09-03T23:54:05.895Z,4.97
2017-09-03T23:56:32.523Z,5.20
2017-09-03T23:58:59.200Z,4.50
